createdAt,value
2022-09-26T00:00:37.285Z,0.00
2022-09-26T00:01:37.363Z,0.00
2022-09-26T00:02:37.315Z,0.00
2022-09-26T00:03:37.249Z,0.00
2022-09-26T00:04:37.251Z,0.00
2022-09-26T00:05:37.251Z,0.00
2022-09-26T00:06:37.224Z,0.00
2022-09-26T00:07:37.217Z,0.00
2022-09-26T00:08:37.219Z,0.00
2022-09-26T00:09:37.190Z,0.00
2022-09-26T00:10:37.185Z,0.00
2022-09-26T00:11:37.168Z,0.00
2022-09-26T00:12:37.178Z,0.00
2022-09-26T00:13:37.156Z,0.00
2022-09-26T00:14:37.139Z,0.00
2022-09-26T00:15:37.132Z,0.00
2022-09-26T00:16:37.157Z,0.00
2022-09-26T00:17:37.111Z,0.00
2022-09-26T00:18:37.109Z,0.00
2022-09-26T00:19:37.092Z,0.00
2022-09-26T00:20:37.079Z,0.00
2022-09-26T00:21:37.079Z,0.00
2022-09-26T00:22:37.059Z,0.00
2022-09-26T00:23:37.065Z,0.00
2022-09-26T00:24:37.042Z,0.00
2022-09-26T00:25:37.025Z,0.00
2022-09-26T00:26:37.023Z,0.00
2022-09-26T00:27:37.005Z,0.00
2022-09-26T00:28:37.012Z,0.00
2022-09-26T00:29:36.984Z,0.00
2022-09-26T00:30:37.006Z,0.00
2022-09-26T00:31:36.968Z,0.00
2022-09-26T00:32:36.962Z,0.00
2022-09-26T00:33:36.961Z,0.00
2022-09-26T00:34:36.939Z,0.00
2022-09-26T00:35:36.932Z,0.00
2022-09-26T00:36:38.727Z,0.00
2022-09-26T00:37:37.908Z,0.00
2022-09-26T00:38:36.940Z,0.00
2022-09-26T00:39:36.885Z,0.00
2022-09-26T00:40:36.934Z,0.00
2022-09-26T00:41:36.868Z,0.00
2022-09-26T00:42:36.861Z,0.00
2022-09-26T00:43:36.863Z,0.00
2022-09-26T00:44:36.838Z,0.00
2022-09-26T00:45:36.862Z,0.00
2022-09-26T00:46:36.818Z,0.00
2022-09-26T00:47:36.805Z,0.00
2022-09-26T00:48:36.809Z,0.00
2022-09-26T00:49:36.792Z,0.00
2022-09-26T00:50:36.779Z,0.00
2022-09-26T00:51:36.768Z,0.00
2022-09-26T00:52:36.756Z,0.00
2022-09-26T00:53:36.761Z,0.00
2022-09-26T00:54:36.735Z,0.00
2022-09-26T00:55:36.728Z,0.00
2022-09-26T00:56:36.722Z,0.00
2022-09-26T00:57:36.707Z,0.00
2022-09-26T00:58:36.714Z,0.00
2022-09-26T00:59:36.692Z,0.00
2022-09-26T01:00:37.574Z,0.00
2022-09-26T01:01:36.746Z,0.00
2022-09-26T01:02:36.864Z,0.00
2022-09-26T01:03:36.667Z,0.00
2022-09-26T01:04:36.645Z,0.00
2022-09-26T01:05:36.644Z,0.00
2022-09-26T01:06:36.625Z,0.00
2022-09-26T01:07:36.612Z,0.00
2022-09-26T01:08:36.612Z,0.00
2022-09-26T01:09:36.611Z,0.00
2022-09-26T01:10:36.592Z,0.00
2022-09-26T01:11:36.569Z,0.00
2022-09-26T01:12:36.566Z,0.00
2022-09-26T01:13:36.569Z,0.00
2022-09-26T01:14:36.548Z,0.00
2022-09-26T01:15:36.553Z,0.00
2022-09-26T01:16:36.611Z,0.00
2022-09-26T01:17:36.514Z,0.00
2022-09-26T01:18:36.519Z,0.00
2022-09-26T01:19:36.493Z,0.00
2022-09-26T01:20:36.482Z,0.00
2022-09-26T01:21:36.478Z,0.00
2022-09-26T01:22:36.463Z,0.00
2022-09-26T01:23:36.466Z,0.00
2022-09-26T01:24:36.444Z,0.00
2022-09-26T01:25:36.434Z,0.00
2022-09-26T01:26:36.425Z,0.00
2022-09-26T01:27:36.416Z,0.00
2022-09-26T01:28:36.415Z,0.00
2022-09-26T01:29:36.397Z,0.00
2022-09-26T01:30:36.395Z,0.00
2022-09-26T01:31:36.377Z,0.00
2022-09-26T01:32:36.373Z,0.00
2022-09-26T01:33:36.369Z,0.00
2022-09-26T01:34:36.344Z,0.00
2022-09-26T01:35:36.335Z,0.00
2022-09-26T01:36:36.325Z,0.00
2022-09-26T01:37:36.317Z,0.00
2022-09-26T01:38:36.318Z,0.00
2022-09-26T01:39:36.294Z,0.00
2022-09-26T01:40:36.375Z,0.00
2022-09-26T01:41:36.274Z,0.00
2022-09-26T01:42:36.277Z,0.00
2022-09-26T01:43:36.279Z,0.00
2022-09-26T01:44:36.252Z,0.00
2022-09-26T01:45:36.282Z,0.00
2022-09-26T01:46:36.222Z,0.00
2022-09-26T01:47:36.249Z,0.00
2022-09-26T01:48:36.217Z,0.00
2022-09-26T01:49:36.198Z,0.00
2022-09-26T01:50:36.187Z,0.00
2022-09-26T01:51:36.179Z,0.00
2022-09-26T01:52:36.179Z,0.00
2022-09-26T01:53:36.168Z,0.00
2022-09-26T01:54:36.146Z,0.00
2022-09-26T01:55:36.142Z,0.00
2022-09-26T01:56:36.125Z,0.00
2022-09-26T01:57:36.190Z,0.00
2022-09-26T01:58:36.150Z,0.00
2022-09-26T01:59:36.101Z,0.00
2022-09-26T02:00:36.090Z,0.00
2022-09-26T02:01:36.103Z,0.00
2022-09-26T02:02:36.146Z,0.00
2022-09-26T02:03:36.072Z,0.00
2022-09-26T02:04:36.065Z,0.00
2022-09-26T02:05:36.050Z,0.00
2022-09-26T02:06:36.040Z,0.00
2022-09-26T02:07:36.035Z,0.00
2022-09-26T02:08:36.035Z,0.00
2022-09-26T02:09:36.002Z,0.00
2022-09-26T02:10:35.990Z,0.00
2022-09-26T02:11:35.984Z,0.00
2022-09-26T02:12:35.970Z,0.00
2022-09-26T02:13:35.978Z,0.00
2022-09-26T02:14:35.959Z,0.00
2022-09-26T02:15:35.955Z,0.00
2022-09-26T02:16:35.979Z,0.00
2022-09-26T02:17:35.932Z,0.00
2022-09-26T02:18:35.933Z,0.00
2022-09-26T02:19:35.911Z,0.00
2022-09-26T02:20:35.901Z,0.00
2022-09-26T02:21:35.892Z,0.00
2022-09-26T02:22:35.885Z,0.00
2022-09-26T02:23:35.890Z,0.00
2022-09-26T02:24:35.866Z,0.00
2022-09-26T02:25:35.852Z,0.00
2022-09-26T02:26:35.843Z,0.00
2022-09-26T02:27:35.844Z,0.00
2022-09-26T02:28:35.842Z,0.00
2022-09-26T02:29:35.819Z,0.00
2022-09-26T02:30:35.809Z,0.00
2022-09-26T02:31:35.836Z,0.00
2022-09-26T02:32:35.787Z,0.00
2022-09-26T02:33:35.805Z,0.00
2022-09-26T02:34:35.770Z,0.00
2022-09-26T02:35:35.759Z,0.00
2022-09-26T02:36:35.749Z,0.00
2022-09-26T02:37:35.741Z,0.00
2022-09-26T02:38:35.749Z,0.00
2022-09-26T02:39:35.727Z,0.00
2022-09-26T02:40:35.737Z,0.00
2022-09-26T02:41:35.708Z,0.00
2022-09-26T02:42:35.699Z,0.00
2022-09-26T02:43:35.700Z,0.00
2022-09-26T02:44:35.693Z,0.00
2022-09-26T02:45:36.742Z,0.00
2022-09-26T02:46:35.655Z,0.00
2022-09-26T02:47:35.642Z,0.00
2022-09-26T02:48:35.647Z,0.00
2022-09-26T02:49:35.628Z,0.00
2022-09-26T02:50:35.619Z,0.00
2022-09-26T02:51:35.608Z,0.00
2022-09-26T02:52:35.605Z,0.00
2022-09-26T02:53:35.604Z,0.00
2022-09-26T02:54:35.579Z,0.00
2022-09-26T02:55:35.584Z,0.00
2022-09-26T02:56:35.558Z,0.00
2022-09-26T02:57:35.549Z,0.00
2022-09-26T02:58:35.546Z,0.00
2022-09-26T02:59:35.530Z,0.00
2022-09-26T03:00:35.522Z,0.00
2022-09-26T03:01:35.616Z,0.00
2022-09-26T03:02:35.500Z,0.00
2022-09-26T03:03:35.550Z,0.00
2022-09-26T03:04:35.549Z,0.00
2022-09-26T03:05:35.471Z,0.00
2022-09-26T03:06:35.463Z,0.00
2022-09-26T03:07:35.450Z,0.00
2022-09-26T03:08:35.448Z,0.00
2022-09-26T03:09:35.429Z,0.00
2022-09-26T03:10:35.419Z,0.00
2022-09-26T03:11:35.408Z,0.00
2022-09-26T03:12:35.399Z,0.00
2022-09-26T03:13:35.401Z,0.00
2022-09-26T03:14:35.383Z,0.00
2022-09-26T03:15:35.388Z,0.00
2022-09-26T03:16:35.425Z,0.00
2022-09-26T03:17:35.351Z,0.00
2022-09-26T03:18:35.353Z,0.00
2022-09-26T03:19:35.333Z,0.00
2022-09-26T03:20:35.325Z,0.00
2022-09-26T03:21:37.166Z,0.00
2022-09-26T03:22:36.306Z,0.00
2022-09-26T03:23:35.310Z,0.00
2022-09-26T03:24:35.288Z,0.00
2022-09-26T03:25:35.276Z,0.00
2022-09-26T03:26:35.271Z,0.00
2022-09-26T03:27:35.260Z,0.00
2022-09-26T03:28:37.838Z,0.00
2022-09-26T03:29:36.236Z,0.00
2022-09-26T03:30:35.233Z,0.00
2022-09-26T03:31:35.305Z,0.00
2022-09-26T03:32:35.211Z,0.00
2022-09-26T03:33:35.228Z,0.00
2022-09-26T03:34:35.208Z,0.00
2022-09-26T03:35:35.208Z,0.00
2022-09-26T03:36:35.174Z,0.00
2022-09-26T03:37:35.169Z,0.00
2022-09-26T03:38:35.171Z,0.00
2022-09-26T03:39:35.153Z,0.00
2022-09-26T03:40:35.195Z,0.00
2022-09-26T03:41:35.122Z,0.00
2022-09-26T03:42:35.114Z,0.00
2022-09-26T03:43:35.113Z,0.00
2022-09-26T03:44:35.093Z,0.00
2022-09-26T03:45:35.116Z,0.00
2022-09-26T03:46:39.100Z,0.00
2022-09-26T03:47:37.067Z,0.00
2022-09-26T03:48:35.068Z,0.00
2022-09-26T03:49:35.047Z,0.00
2022-09-26T03:50:35.037Z,0.00
2022-09-26T03:51:35.033Z,0.00
2022-09-26T03:52:35.021Z,0.00
2022-09-26T03:53:35.015Z,0.00
2022-09-26T03:54:35.005Z,0.00
2022-09-26T03:55:34.986Z,0.00
2022-09-26T03:56:34.982Z,0.00
2022-09-26T03:57:34.969Z,0.00
2022-09-26T03:58:34.971Z,0.00
2022-09-26T03:59:34.951Z,0.00
2022-09-26T04:00:34.985Z,0.00
2022-09-26T04:01:34.985Z,0.00
2022-09-26T04:02:34.976Z,0.00
2022-09-26T04:03:34.920Z,0.00
2022-09-26T04:04:34.910Z,0.00
2022-09-26T04:05:34.892Z,0.00
2022-09-26T04:06:34.880Z,0.00
2022-09-26T04:07:34.875Z,0.00
2022-09-26T04:08:34.876Z,0.00
2022-09-26T04:09:34.854Z,0.00
2022-09-26T04:10:34.844Z,0.00
2022-09-26T04:11:34.841Z,0.00
2022-09-26T04:12:34.826Z,0.00
2022-09-26T04:13:50.777Z,0.00
2022-09-26T04:14:36.804Z,0.00
2022-09-26T04:15:34.791Z,0.00
2022-09-26T04:16:34.811Z,0.00
2022-09-26T04:17:34.773Z,0.00
2022-09-26T04:18:34.809Z,0.00
2022-09-26T04:19:34.755Z,0.00
2022-09-26T04:20:34.752Z,0.00
2022-09-26T04:21:34.743Z,0.00
2022-09-26T04:22:34.732Z,0.00
2022-09-26T04:23:34.754Z,0.00
2022-09-26T04:24:34.715Z,0.00
2022-09-26T04:25:34.723Z,0.00
2022-09-26T04:26:34.694Z,0.00
2022-09-26T04:27:34.688Z,0.00
2022-09-26T04:28:34.682Z,0.00
2022-09-26T04:30:06.599Z,0.00
2022-09-26T04:30:34.648Z,0.00
2022-09-26T04:31:34.692Z,0.00
2022-09-26T04:32:34.631Z,0.00
2022-09-26T04:33:34.639Z,0.00
2022-09-26T04:34:34.611Z,0.00
2022-09-26T04:35:34.596Z,0.00
2022-09-26T04:36:34.586Z,0.00
2022-09-26T04:37:34.582Z,0.00
2022-09-26T04:38:34.581Z,0.00
2022-09-26T04:39:34.559Z,0.00
2022-09-26T04:40:37.285Z,0.00
2022-09-26T04:41:34.538Z,0.00
2022-09-26T04:42:34.521Z,0.00
2022-09-26T04:43:34.528Z,0.00
2022-09-26T04:44:34.506Z,0.00
2022-09-26T04:45:34.565Z,0.00
2022-09-26T04:46:34.537Z,0.00
2022-09-26T04:47:34.481Z,4.00
2022-09-26T04:48:34.479Z,4.00
2022-09-26T04:49:34.462Z,0.00
2022-09-26T04:50:34.448Z,0.00
2022-09-26T04:51:34.445Z,4.00
2022-09-26T04:52:34.434Z,4.00
2022-09-26T04:53:34.439Z,4.00
2022-09-26T04:54:34.415Z,4.00
2022-09-26T04:55:34.405Z,4.00
2022-09-26T04:56:34.396Z,8.00
2022-09-26T04:57:34.388Z,8.00
2022-09-26T04:58:34.383Z,8.00
2022-09-26T04:59:34.365Z,8.00
2022-09-26T05:00:34.453Z,12.00
2022-09-26T05:01:34.556Z,12.00
2022-09-26T05:02:34.366Z,16.00
2022-09-26T05:03:34.324Z,16.00
2022-09-26T05:04:35.308Z,20.00
2022-09-26T05:05:34.299Z,24.00
2022-09-26T05:06:34.292Z,32.00
2022-09-26T05:07:34.281Z,32.00
2022-09-26T05:08:34.284Z,36.00
2022-09-26T05:09:36.070Z,44.00
2022-09-26T05:10:35.250Z,48.00
2022-09-26T05:11:34.235Z,56.00
2022-09-26T05:12:34.236Z,60.00
2022-09-26T05:13:34.231Z,64.00
2022-09-26T05:14:34.209Z,68.00
2022-09-26T05:15:34.198Z,76.00
2022-09-26T05:16:34.264Z,88.00
2022-09-26T05:17:34.177Z,92.00
2022-09-26T05:18:34.180Z,104.00
2022-09-26T05:19:34.156Z,108.00
2022-09-26T05:20:34.148Z,116.00
2022-09-26T05:21:34.141Z,128.00
2022-09-26T05:22:34.129Z,140.00
2022-09-26T05:23:34.127Z,148.00
2022-09-26T05:24:34.111Z,156.00
2022-09-26T05:25:34.098Z,172.00
2022-09-26T05:26:34.098Z,176.00
2022-09-26T05:27:34.082Z,180.00
2022-09-26T05:28:34.081Z,188.00
2022-09-26T05:29:34.057Z,204.00
2022-09-26T05:30:34.043Z,216.00
2022-09-26T05:31:34.090Z,228.00
2022-09-26T05:32:34.028Z,248.00
2022-09-26T05:33:34.028Z,264.00
2022-09-26T05:34:34.006Z,272.00
2022-09-26T05:35:33.994Z,276.00
2022-09-26T05:36:33.986Z,284.00
2022-09-26T05:37:33.980Z,296.00
2022-09-26T05:38:34.058Z,312.00
2022-09-26T05:39:35.889Z,312.00
2022-09-26T05:40:34.987Z,312.00
2022-09-26T05:41:33.944Z,312.00
2022-09-26T05:42:33.935Z,320.00
2022-09-26T05:43:33.944Z,332.00
2022-09-26T05:44:33.914Z,344.00
2022-09-26T05:45:33.910Z,360.00
2022-09-26T05:46:33.961Z,372.00
2022-09-26T05:47:33.889Z,388.00
2022-09-26T05:48:33.889Z,416.00
2022-09-26T05:49:33.869Z,444.00
2022-09-26T05:50:33.858Z,472.00
2022-09-26T05:51:33.849Z,492.00
2022-09-26T05:52:33.840Z,500.00
2022-09-26T05:53:33.840Z,492.00
2022-09-26T05:54:33.823Z,484.00
2022-09-26T05:55:33.831Z,480.00
2022-09-26T05:56:33.800Z,472.00
2022-09-26T05:57:33.811Z,448.00
2022-09-26T05:58:33.794Z,388.00
2022-09-26T05:59:33.782Z,348.00
2022-09-26T06:00:33.831Z,336.00
2022-09-26T06:01:33.790Z,344.00
2022-09-26T06:02:33.830Z,352.00
2022-09-26T06:03:33.749Z,360.00
2022-09-26T06:04:33.726Z,372.00
2022-09-26T06:05:33.723Z,388.00
2022-09-26T06:06:33.709Z,416.00
2022-09-26T06:07:33.709Z,444.00
2022-09-26T06:08:33.821Z,480.00
2022-09-26T06:09:33.678Z,520.00
2022-09-26T06:10:33.673Z,560.00
2022-09-26T06:11:33.660Z,580.00
2022-09-26T06:12:33.650Z,616.00
2022-09-26T06:13:33.651Z,652.00
2022-09-26T06:14:33.655Z,684.00
2022-09-26T06:15:33.622Z,716.00
2022-09-26T06:16:33.646Z,744.00
2022-09-26T06:17:33.604Z,744.00
2022-09-26T06:18:33.616Z,752.00
2022-09-26T06:19:33.594Z,776.00
2022-09-26T06:20:33.579Z,792.00
2022-09-26T06:21:33.568Z,824.00
2022-09-26T06:22:33.559Z,852.00
2022-09-26T06:23:33.563Z,884.00
2022-09-26T06:24:33.546Z,908.00
2022-09-26T06:25:33.532Z,972.00
2022-09-26T06:26:33.521Z,1044.00
2022-09-26T06:27:33.509Z,1080.00
2022-09-26T06:28:33.513Z,1128.00
2022-09-26T06:29:33.492Z,1180.00
2022-09-26T06:30:33.478Z,1252.00
2022-09-26T06:31:33.565Z,1248.00
2022-09-26T06:32:33.467Z,1300.00
2022-09-26T06:33:33.637Z,1468.00
2022-09-26T06:34:33.447Z,1580.00
2022-09-26T06:35:33.434Z,1672.00
2022-09-26T06:36:33.418Z,1804.00
2022-09-26T06:37:33.409Z,1820.00
2022-09-26T06:38:33.415Z,1880.00
2022-09-26T06:39:33.394Z,1964.00
2022-09-26T06:40:33.420Z,1980.00
2022-09-26T06:41:33.369Z,1940.00
2022-09-26T06:42:34.363Z,1824.00
2022-09-26T06:43:33.361Z,1768.00
2022-09-26T06:44:33.342Z,1664.00
2022-09-26T06:45:33.408Z,1492.00
2022-09-26T06:46:33.349Z,1376.00
2022-09-26T06:47:33.316Z,1304.00
2022-09-26T06:48:33.317Z,1244.00
2022-09-26T06:49:33.302Z,1200.00
2022-09-26T06:50:33.283Z,1212.00
2022-09-26T06:51:33.272Z,1240.00
2022-09-26T06:52:33.266Z,1280.00
2022-09-26T06:53:33.351Z,1316.00
2022-09-26T06:54:33.243Z,1392.00
2022-09-26T06:55:33.234Z,1468.00
2022-09-26T06:56:33.224Z,1520.00
2022-09-26T06:57:33.211Z,1516.00
2022-09-26T06:58:33.208Z,1488.00
2022-09-26T06:59:33.183Z,1484.00
2022-09-26T07:00:34.194Z,1520.00
2022-09-26T07:01:34.312Z,1568.00
2022-09-26T07:02:33.188Z,1616.00
2022-09-26T07:03:33.165Z,1664.00
2022-09-26T07:04:33.139Z,1724.00
2022-09-26T07:05:33.129Z,1756.00
2022-09-26T07:06:33.117Z,1848.00
2022-09-26T07:07:33.108Z,1920.00
2022-09-26T07:09:00.462Z,2080.00
2022-09-26T07:09:35.096Z,2000.00
2022-09-26T07:10:33.107Z,2004.00
2022-09-26T07:11:46.261Z,2356.00
2022-09-26T07:12:35.062Z,2364.00
2022-09-26T07:13:33.080Z,2352.00
2022-09-26T07:14:33.048Z,2376.00
2022-09-26T07:15:33.043Z,2428.00
2022-09-26T07:16:33.078Z,2524.00
2022-09-26T07:17:33.016Z,2616.00
2022-09-26T07:18:33.011Z,2776.00
2022-09-26T07:19:32.993Z,2964.00
2022-09-26T07:20:32.983Z,2528.00
2022-09-26T07:21:32.975Z,2544.00
2022-09-26T07:22:32.961Z,2808.00
2022-09-26T07:23:32.967Z,2728.00
2022-09-26T07:24:32.941Z,2652.00
2022-09-26T07:25:32.933Z,3324.00
2022-09-26T07:26:32.920Z,3132.00
2022-09-26T07:27:32.921Z,3064.00
2022-09-26T07:28:32.899Z,2812.00
2022-09-26T07:29:32.900Z,2952.00
2022-09-26T07:30:32.881Z,3076.00
2022-09-26T07:31:32.930Z,2688.00
2022-09-26T07:32:32.858Z,2756.00
2022-09-26T07:33:32.848Z,3004.00
2022-09-26T07:34:32.846Z,3356.00
2022-09-26T07:35:32.835Z,3464.00
2022-09-26T07:36:32.818Z,3268.00
2022-09-26T07:37:32.810Z,3248.00
2022-09-26T07:38:32.798Z,3844.00
2022-09-26T07:39:32.801Z,3532.00
2022-09-26T07:40:32.845Z,3248.00
2022-09-26T07:41:32.778Z,3048.00
2022-09-26T07:42:32.760Z,2960.00
2022-09-26T07:45:34.834Z,3516.00
2022-09-26T07:46:32.752Z,3180.00
2022-09-26T07:47:32.712Z,3472.00
2022-09-26T07:48:32.700Z,3760.00
2022-09-26T07:49:32.703Z,3240.00
2022-09-26T07:50:32.789Z,3828.00
2022-09-26T07:51:32.679Z,3120.00
2022-09-26T07:52:32.661Z,3152.00
2022-09-26T07:53:32.660Z,3272.00
2022-09-26T07:54:32.646Z,2348.00
2022-09-26T07:55:32.631Z,2728.00
2022-09-26T07:56:32.616Z,3444.00
2022-09-26T07:57:32.611Z,2372.00
2022-09-26T07:58:32.609Z,2512.00
2022-09-26T07:59:32.617Z,2096.00
2022-09-26T08:00:32.574Z,2824.00
2022-09-26T08:01:32.624Z,3048.00
2022-09-26T08:02:32.688Z,1680.00
2022-09-26T08:03:32.543Z,1980.00
2022-09-26T08:04:32.543Z,2156.00
2022-09-26T08:05:32.543Z,1480.00
2022-09-26T08:06:32.557Z,1684.00
2022-09-26T08:07:32.509Z,1720.00
2022-09-26T08:08:32.545Z,1760.00
2022-09-26T08:09:32.521Z,1444.00
2022-09-26T08:10:32.476Z,1640.00
2022-09-26T08:11:32.450Z,1844.00
2022-09-26T08:12:33.452Z,1792.00
2022-09-26T08:13:32.472Z,1888.00
2022-09-26T08:14:32.460Z,1640.00
2022-09-26T08:15:32.421Z,1740.00
2022-09-26T08:16:32.494Z,1448.00
2022-09-26T08:17:32.443Z,1380.00
2022-09-26T08:18:32.437Z,1268.00
2022-09-26T08:19:32.400Z,1124.00
2022-09-26T08:20:32.534Z,1272.00
2022-09-26T08:21:32.358Z,1336.00
2022-09-26T08:22:32.370Z,1640.00
2022-09-26T08:23:32.349Z,1140.00
2022-09-26T08:24:32.344Z,832.00
2022-09-26T08:25:32.322Z,892.00
2022-09-26T08:26:32.315Z,812.00
2022-09-26T08:27:32.304Z,552.00
2022-09-26T08:28:32.290Z,572.00
2022-09-26T08:29:32.294Z,784.00
2022-09-26T08:30:32.271Z,776.00
2022-09-26T08:31:32.280Z,548.00
2022-09-26T08:32:32.308Z,560.00
2022-09-26T08:33:32.244Z,664.00
2022-09-26T08:34:32.250Z,888.00
2022-09-26T08:35:32.221Z,1564.00
2022-09-26T08:36:32.208Z,1500.00
2022-09-26T08:37:32.195Z,1280.00
2022-09-26T08:38:32.195Z,1360.00
2022-09-26T08:39:33.538Z,1520.00
2022-09-26T08:40:33.204Z,1840.00
2022-09-26T08:41:33.166Z,2368.00
2022-09-26T08:42:32.151Z,2752.00
2022-09-26T08:43:32.141Z,2476.00
2022-09-26T08:44:32.137Z,2364.00
2022-09-26T08:45:32.120Z,2392.00
2022-09-26T08:46:32.195Z,2564.00
2022-09-26T08:47:32.105Z,3148.00
2022-09-26T08:48:32.088Z,3124.00
2022-09-26T08:49:32.083Z,3100.00
2022-09-26T08:50:33.068Z,3144.00
2022-09-26T08:51:32.060Z,3380.00
2022-09-26T08:52:32.045Z,2880.00
2022-09-26T08:53:32.032Z,2568.00
2022-09-26T08:54:32.034Z,2796.00
2022-09-26T08:55:32.024Z,2592.00
2022-09-26T08:56:32.002Z,2816.00
2022-09-26T08:57:31.990Z,2956.00
2022-09-26T08:58:31.983Z,3504.00
2022-09-26T08:59:31.986Z,3924.00
2022-09-26T09:00:31.964Z,4576.00
2022-09-26T09:01:32.003Z,5100.00
2022-09-26T09:02:32.047Z,4932.00
2022-09-26T09:03:31.933Z,3648.00
2022-09-26T09:04:31.933Z,4056.00
2022-09-26T09:05:31.899Z,4800.00
2022-09-26T09:06:32.908Z,4584.00
2022-09-26T09:07:31.894Z,4976.00
2022-09-26T09:08:31.878Z,5176.00
2022-09-26T09:09:31.885Z,5408.00
2022-09-26T09:10:31.892Z,5532.00
2022-09-26T09:11:31.848Z,4460.00
2022-09-26T09:12:32.481Z,4872.00
2022-09-26T09:13:32.835Z,4472.00
2022-09-26T09:14:31.825Z,5308.00
2022-09-26T09:15:31.810Z,6108.00
2022-09-26T09:16:31.878Z,5356.00
2022-09-26T09:17:31.790Z,6340.00
2022-09-26T09:18:31.778Z,6504.00
2022-09-26T09:19:31.782Z,6280.00
2022-09-26T09:20:31.760Z,6900.00
2022-09-26T09:21:31.748Z,6860.00
2022-09-26T09:22:31.739Z,7780.00
2022-09-26T09:23:31.728Z,6876.00
2022-09-26T09:24:31.728Z,5900.00
2022-09-26T09:25:31.707Z,6712.00
2022-09-26T09:28:33.695Z,6116.00
2022-09-26T09:29:31.682Z,6096.00
2022-09-26T09:30:31.662Z,6216.00
2022-09-26T09:31:31.662Z,5924.00
2022-09-26T09:32:31.631Z,5140.00
2022-09-26T09:33:31.620Z,5268.00
2022-09-26T09:34:31.636Z,5168.00
2022-09-26T09:35:31.593Z,5000.00
2022-09-26T09:36:32.595Z,4816.00
2022-09-26T09:37:31.615Z,4780.00
2022-09-26T09:38:31.572Z,4640.00
2022-09-26T09:39:31.571Z,3936.00
2022-09-26T09:40:31.608Z,3704.00
2022-09-26T09:41:31.540Z,3632.00
2022-09-26T09:42:31.528Z,3800.00
2022-09-26T09:43:31.519Z,5136.00
2022-09-26T09:44:31.520Z,4128.00
2022-09-26T09:45:31.493Z,5256.00
2022-09-26T09:46:31.576Z,4520.00
2022-09-26T09:47:31.478Z,4660.00
2022-09-26T09:48:31.465Z,5272.00
2022-09-26T09:49:31.467Z,5492.00
2022-09-26T09:50:31.460Z,5240.00
2022-09-26T09:51:35.473Z,5588.00
2022-09-26T09:52:32.426Z,4168.00
2022-09-26T09:53:31.414Z,4524.00
2022-09-26T09:54:31.423Z,6068.00
2022-09-26T09:55:31.393Z,5868.00
2022-09-26T09:56:31.383Z,4496.00
2022-09-26T09:57:31.396Z,5264.00
2022-09-26T09:58:31.363Z,6180.00
2022-09-26T09:59:31.352Z,5672.00
2022-09-26T10:00:31.349Z,6024.00
2022-09-26T10:01:31.334Z,6272.00
2022-09-26T10:02:31.394Z,7208.00
2022-09-26T10:03:31.311Z,7108.00
2022-09-26T10:04:31.305Z,6232.00
2022-09-26T10:05:31.305Z,5104.00
2022-09-26T10:06:44.701Z,4772.00
2022-09-26T10:07:32.270Z,6428.00
2022-09-26T10:08:31.283Z,5064.00
2022-09-26T10:09:35.827Z,6884.00
2022-09-26T10:10:32.251Z,6992.00
2022-09-26T10:11:31.228Z,6912.00
2022-09-26T10:12:31.222Z,7520.00
2022-09-26T10:13:31.211Z,6672.00
2022-09-26T10:14:31.200Z,4312.00
2022-09-26T10:15:31.358Z,4480.00
2022-09-26T10:16:31.322Z,4596.00
2022-09-26T10:17:31.215Z,4872.00
2022-09-26T10:18:31.157Z,5344.00
2022-09-26T10:19:31.152Z,8144.00
2022-09-26T10:20:31.155Z,5264.00
2022-09-26T10:21:31.141Z,4980.00
2022-09-26T10:22:31.120Z,4604.00
2022-09-26T10:23:31.114Z,4684.00
2022-09-26T10:24:31.104Z,4876.00
2022-09-26T10:25:31.122Z,4928.00
2022-09-26T10:26:31.649Z,4720.00
2022-09-26T10:27:32.073Z,3616.00
2022-09-26T10:28:31.070Z,3128.00
2022-09-26T10:29:31.054Z,2696.00
2022-09-26T10:30:31.075Z,2704.00
2022-09-26T10:31:31.170Z,3636.00
2022-09-26T10:32:31.024Z,3968.00
2022-09-26T10:33:31.004Z,4084.00
2022-09-26T10:34:31.003Z,4172.00
2022-09-26T10:35:31.001Z,3592.00
2022-09-26T10:36:30.988Z,3204.00
2022-09-26T10:37:30.973Z,3352.00
2022-09-26T10:38:30.966Z,3528.00
2022-09-26T10:39:30.959Z,4264.00
2022-09-26T10:40:31.036Z,4340.00
2022-09-26T10:41:30.928Z,4044.00
2022-09-26T10:42:32.435Z,4064.00
2022-09-26T10:43:31.908Z,4152.00
2022-09-26T10:44:30.902Z,4384.00
2022-09-26T10:45:30.904Z,4316.00
2022-09-26T10:46:30.979Z,3876.00
2022-09-26T10:47:30.882Z,3324.00
2022-09-26T10:48:30.862Z,3028.00
2022-09-26T10:49:30.853Z,3972.00
2022-09-26T10:50:30.865Z,5324.00
2022-09-26T10:51:30.851Z,5152.00
2022-09-26T10:52:30.826Z,4216.00
2022-09-26T10:53:30.817Z,3476.00
2022-09-26T10:54:30.812Z,2972.00
2022-09-26T10:55:30.807Z,3092.00
2022-09-26T10:56:30.789Z,3360.00
2022-09-26T10:57:30.805Z,3192.00
2022-09-26T10:58:30.769Z,2972.00
2022-09-26T10:59:30.745Z,3076.00
2022-09-26T11:00:31.758Z,3076.00
2022-09-26T11:01:30.757Z,2540.00
2022-09-26T11:02:30.723Z,2128.00
2022-09-26T11:03:30.782Z,2216.00
2022-09-26T11:04:30.713Z,1928.00
2022-09-26T11:05:30.714Z,1792.00
2022-09-26T11:06:30.684Z,2172.00
2022-09-26T11:07:30.679Z,2300.00
2022-09-26T11:08:30.672Z,2104.00
2022-09-26T11:09:30.655Z,1900.00
2022-09-26T11:10:30.662Z,2444.00
2022-09-26T11:11:30.637Z,2740.00
2022-09-26T11:12:30.625Z,2992.00
2022-09-26T11:13:30.620Z,3152.00
2022-09-26T11:14:30.605Z,2984.00
2022-09-26T11:15:30.676Z,2744.00
2022-09-26T11:16:36.480Z,2572.00
2022-09-26T11:17:32.577Z,2464.00
2022-09-26T11:18:30.562Z,2456.00
2022-09-26T11:19:30.560Z,2796.00
2022-09-26T11:20:30.574Z,3428.00
2022-09-26T11:21:30.536Z,3820.00
2022-09-26T11:22:30.530Z,3612.00
2022-09-26T11:23:30.516Z,3508.00
2022-09-26T11:24:30.502Z,3380.00
2022-09-26T11:25:30.507Z,3968.00
2022-09-26T11:26:30.482Z,4280.00
2022-09-26T11:27:30.478Z,4556.00
2022-09-26T11:28:30.463Z,4324.00
2022-09-26T11:29:30.451Z,3832.00
2022-09-26T11:30:30.451Z,3292.00
2022-09-26T11:31:30.537Z,3072.00
2022-09-26T11:32:30.421Z,2876.00
2022-09-26T11:33:30.413Z,3372.00
2022-09-26T11:34:30.399Z,4456.00
2022-09-26T11:35:30.399Z,5412.00
2022-09-26T11:36:30.379Z,4608.00
2022-09-26T11:37:30.372Z,4216.00
2022-09-26T11:38:30.375Z,3780.00
2022-09-26T11:39:30.354Z,8072.00
2022-09-26T11:40:30.409Z,8800.00
2022-09-26T11:41:30.334Z,6488.00
2022-09-26T11:42:30.327Z,6640.00
2022-09-26T11:43:30.310Z,9020.00
2022-09-26T11:44:30.303Z,5696.00
2022-09-26T11:45:32.719Z,4732.00
2022-09-26T11:46:31.389Z,4248.00
2022-09-26T11:47:30.278Z,3792.00
2022-09-26T11:48:30.268Z,3716.00
2022-09-26T11:49:30.257Z,3752.00
2022-09-26T11:50:30.256Z,3344.00
2022-09-26T11:51:30.243Z,3160.00
2022-09-26T11:52:30.238Z,3356.00
2022-09-26T11:53:30.229Z,3476.00
2022-09-26T11:54:30.212Z,3072.00
2022-09-26T11:55:30.230Z,2456.00
2022-09-26T11:56:30.190Z,3368.00
2022-09-26T11:57:30.188Z,3284.00
2022-09-26T11:58:30.166Z,3144.00
2022-09-26T11:59:30.154Z,2588.00
2022-09-26T12:00:30.161Z,2392.00
2022-09-26T12:01:30.139Z,2608.00
2022-09-26T12:02:30.208Z,2544.00
2022-09-26T12:03:30.221Z,2360.00
2022-09-26T12:04:30.121Z,2248.00
2022-09-26T12:05:30.095Z,2440.00
2022-09-26T12:06:30.082Z,2372.00
2022-09-26T12:07:30.083Z,2292.00
2022-09-26T12:08:30.067Z,2460.00
2022-09-26T12:09:30.074Z,2416.00
2022-09-26T12:10:30.076Z,2464.00
2022-09-26T12:11:30.050Z,2548.00
2022-09-26T12:12:30.022Z,2292.00
2022-09-26T12:13:31.014Z,2240.00
2022-09-26T12:14:30.010Z,2388.00
2022-09-26T12:15:30.014Z,2668.00
2022-09-26T12:16:30.023Z,2904.00
2022-09-26T12:17:29.977Z,3128.00
2022-09-26T12:18:29.974Z,2992.00
2022-09-26T12:19:29.974Z,2708.00
2022-09-26T12:20:29.952Z,2504.00
2022-09-26T12:21:29.945Z,2600.00
2022-09-26T12:22:29.935Z,2660.00
2022-09-26T12:23:29.921Z,2940.00
2022-09-26T12:24:29.923Z,2976.00
2022-09-26T12:25:29.901Z,2888.00
2022-09-26T12:26:29.888Z,2784.00
2022-09-26T12:27:29.878Z,2888.00
2022-09-26T12:28:29.869Z,2856.00
2022-09-26T12:29:29.867Z,2844.00
2022-09-26T12:30:29.852Z,3196.00
2022-09-26T12:31:29.883Z,3388.00
2022-09-26T12:32:29.823Z,3416.00
2022-09-26T12:33:29.818Z,3460.00
2022-09-26T12:34:29.818Z,3512.00
2022-09-26T12:35:29.798Z,3560.00
2022-09-26T12:36:29.788Z,3564.00
2022-09-26T12:37:29.780Z,3424.00
2022-09-26T12:38:29.763Z,3276.00
2022-09-26T12:39:29.769Z,3116.00
2022-09-26T12:40:29.783Z,3024.00